createdAt,value
2022-10-24T00:00:24.979Z,100833.53
2022-10-24T00:10:29.669Z,100839.31
2022-10-24T00:20:32.973Z,100850.66
2022-10-24T00:30:41.812Z,100840.16
2022-10-24T00:40:45.089Z,100846.87
2022-10-24T00:50:51.335Z,100824.44
2022-10-24T01:00:54.516Z,100832.22
2022-10-24T01:11:06.973Z,100824.06
2022-10-24T01:21:17.040Z,100811.13
2022-10-24T01:31:25.677Z,100808.53
2022-10-24T01:41:30.137Z,100821.62
2022-10-24T01:51:35.476Z,100811.91
2022-10-24T02:01:40.353Z,100812.03
2022-10-24T02:11:46.393Z,100810.03
2022-10-24T02:21:54.355Z,100818.88
2022-10-24T02:32:00.022Z,100802.63
2022-10-24T02:42:04.054Z,100795.94
2022-10-24T02:52:08.722Z,100786.16
2022-10-24T03:02:11.793Z,100775.81
2022-10-24T03:12:16.844Z,100768.47
2022-10-24T03:22:19.905Z,100765.63
2022-10-24T03:42:32.641Z,100777.06
2022-10-24T03:52:37.167Z,100766.00
2022-10-24T04:02:43.072Z,100774.56
2022-10-24T04:12:48.431Z,100767.16
2022-10-24T04:22:51.617Z,100780.50
2022-10-24T04:32:56.518Z,100803.41
2022-10-24T04:42:59.603Z,100791.16
2022-10-24T04:53:04.390Z,100774.81
2022-10-24T05:03:07.523Z,100771.09
2022-10-24T05:13:11.986Z,100763.72
2022-10-24T05:23:15.027Z,100761.63
2022-10-24T05:33:19.543Z,100782.31
2022-10-24T05:43:22.684Z,100805.03
2022-10-24T05:53:27.767Z,100825.84
2022-10-24T06:03:30.871Z,100826.34
2022-10-24T06:13:36.330Z,100844.59
2022-10-24T06:23:39.620Z,100856.50
2022-10-24T06:33:44.086Z,100856.75
2022-10-24T06:43:48.004Z,100845.56
2022-10-24T06:53:52.507Z,100849.41
2022-10-24T07:03:55.751Z,100848.84
2022-10-24T07:14:01.582Z,100826.63
2022-10-24T07:24:06.745Z,100834.16
2022-10-24T07:34:11.247Z,100847.84
2022-10-24T07:44:14.443Z,100899.78
2022-10-24T07:54:18.883Z,100890.06
2022-10-24T08:04:22.079Z,100826.69
2022-10-24T08:14:26.565Z,100839.00
2022-10-24T08:24:29.774Z,100821.97
2022-10-24T08:34:34.775Z,100811.28
2022-10-24T08:44:40.086Z,100819.87
2022-10-24T08:54:45.877Z,100808.12
2022-10-24T09:04:53.584Z,100797.97
2022-10-24T09:15:00.141Z,100797.81
2022-10-24T09:25:05.550Z,100803.13
2022-10-24T09:35:16.666Z,100813.53
2022-10-24T09:45:22.418Z,100813.22
2022-10-24T09:55:28.785Z,100830.97
2022-10-24T10:05:44.437Z,100851.06
2022-10-24T10:15:50.370Z,100851.06
2022-10-24T10:26:08.191Z,100825.28
2022-10-24T10:36:15.368Z,100802.59
2022-10-24T10:46:22.668Z,100785.50
2022-10-24T10:56:33.436Z,100783.56
2022-10-24T11:06:45.420Z,100780.53
2022-10-24T11:16:50.492Z,100763.88
2022-10-24T11:26:57.806Z,100754.25
2022-10-24T11:37:06.640Z,100756.31
2022-10-24T11:47:32.333Z,100750.31
2022-10-24T11:57:37.287Z,100749.06
2022-10-24T12:08:14.661Z,100736.28
2022-10-24T12:18:30.318Z,100734.91
2022-10-24T12:28:33.887Z,100726.94
2022-10-24T12:39:07.663Z,100716.41
2022-10-24T12:49:23.123Z,100702.88
2022-10-24T12:59:30.492Z,100706.62
2022-10-24T13:09:42.674Z,100697.41
2022-10-24T13:19:46.185Z,100697.00
2022-10-24T13:30:25.667Z,100672.22
2022-10-24T13:40:30.834Z,100679.84
2022-10-24T13:50:38.616Z,100677.75
2022-10-24T14:00:44.704Z,100659.59
2022-10-24T14:10:49.190Z,100656.75
2022-10-24T14:20:53.764Z,100655.88
2022-10-24T14:31:00.121Z,100654.69
2022-10-24T14:41:10.434Z,100650.84
2022-10-24T14:51:19.072Z,100656.09
2022-10-24T15:01:24.045Z,100653.53
2022-10-24T15:11:30.686Z,100656.91
2022-10-24T15:21:36.936Z,100667.41
2022-10-24T15:31:43.555Z,100651.03
2022-10-24T15:41:46.605Z,100642.41
2022-10-24T15:51:51.729Z,100643.44
2022-10-24T16:01:56.693Z,100641.75
2022-10-24T16:12:01.172Z,100636.66
2022-10-24T16:22:04.362Z,100627.56
2022-10-24T16:32:09.126Z,100649.09
2022-10-24T16:42:12.289Z,100653.69
2022-10-24T16:52:17.136Z,100657.28
2022-10-24T17:02:20.883Z,100669.72
2022-10-24T17:12:27.566Z,100668.09
2022-10-24T17:22:31.116Z,100658.50
2022-10-24T17:32:36.064Z,100645.56
2022-10-24T17:42:40.639Z,100631.53
2022-10-24T17:52:50.811Z,100640.63
2022-10-24T18:02:54.910Z,100647.91
2022-10-24T18:23:07.843Z,100638.09
2022-10-24T18:33:12.313Z,100657.84
2022-10-24T18:43:16.212Z,100630.84
2022-10-24T18:53:24.425Z,100617.00
2022-10-24T19:03:33.745Z,100600.72
2022-10-24T19:13:38.670Z,100590.19
2022-10-24T19:23:42.024Z,100598.59
2022-10-24T19:33:46.890Z,100591.00
2022-10-24T19:43:50.851Z,100591.34
2022-10-24T19:53:57.057Z,100593.47
2022-10-24T20:04:01.452Z,100590.41
2022-10-24T20:14:06.528Z,100582.75
2022-10-24T20:24:09.765Z,100555.84
2022-10-24T20:34:15.937Z,100563.66
2022-10-24T20:44:19.543Z,100562.22
2022-10-24T20:54:24.127Z,100554.09
2022-10-24T21:04:27.325Z,100540.75
2022-10-24T21:14:31.902Z,100552.91
2022-10-24T21:24:35.319Z,100559.13
2022-10-24T21:34:39.891Z,100557.38
2022-10-24T21:44:42.992Z,100570.50
2022-10-24T21:54:47.434Z,100577.34
2022-10-24T22:04:50.637Z,100579.69
2022-10-24T22:14:55.054Z,100592.72
2022-10-24T22:24:58.110Z,100601.75
2022-10-24T22:35:03.243Z,100593.91
2022-10-24T22:45:07.661Z,100596.19
2022-10-24T22:55:19.766Z,100598.03
2022-10-24T23:05:29.816Z,100608.50
2022-10-24T23:15:34.749Z,100589.87
2022-10-24T23:25:38.286Z,100588.06
2022-10-24T23:35:49.657Z,100582.84
2022-10-24T23:45:57.421Z,100554.81
2022-10-24T23:56:02.583Z,100567.09
